Time;durP1;ratioP1;P1;durP2;ratioP2;P2;SDS_P1;SDS_P2;PMS_P1;PMS_P2;Temp;Humidity;BMP_temperature;BMP_pressure;BME280_temperature;BME280_humidity;BME280_pressure;Samples;Min_cycle;Max_cycle;Signal;HPM_P1;HPM_P2
2023/08/08 00:01:52;;;;;;;3.20;1.50;;;;;;;15.09;68.32;100704.25;4145626;28;20549;-63
2023/08/08 00:03:55;;;;;;;3.50;1.73;;;;;;;15.07;68.48;100700.72;4146946;28;20048;-63
2023/08/08 00:05:58;;;;;;;3.33;1.40;;;;;;;15.09;68.49;100712.97;4143100;28;20065;-63
2023/08/08 00:08:01;;;;;;;2.25;1.63;;;;;;;15.08;68.35;100713.81;4146037;28;20107;-63
2023/08/08 00:10:04;;;;;;;11.05;2.30;;;;;;;15.13;68.01;100709.47;4146419;28;20045;-62
2023/08/08 00:12:09;;;;;;;3.85;1.75;;;;;;;15.10;68.50;100712.09;4146612;28;20407;-62
2023/08/08 00:14:11;;;;;;;;;;;;;;;14.96;69.18;100709.47;4145042;28;20523;-62
2023/08/08 00:16:14;;;;;;;2.35;1.63;;;;;;;15.00;68.85;100710.34;4129222;28;19936;-62
2023/08/08 00:18:16;;;;;;;2.58;1.40;;;;;;;15.05;69.03;100705.09;4144832;28;20491;-62
2023/08/08 00:20:19;;;;;;;2.83;1.73;;;;;;;15.07;68.60;100703.34;4146100;28;20037;-62
2023/08/08 00:22:22;;;;;;;2.45;1.58;;;;;;;15.08;68.81;100705.97;4146445;28;20068;-62
2023/08/08 00:24:25;;;;;;;6.72;2.10;;;;;;;15.08;68.31;100702.47;4146828;28;20034;-62
2023/08/08 00:26:28;;;;;;;3.25;1.80;;;;;;;15.04;68.85;100705.97;4145656;28;20041;-62
2023/08/08 00:28:33;;;;;;;4.60;1.70;;;;;;;15.05;68.70;100707.72;4146149;28;20034;-62
2023/08/08 00:30:35;;;;;;;2.25;1.23;;;;;;;15.04;68.56;100704.25;4112234;28;20588;-63
2023/08/08 00:32:39;;;;;;;3.50;1.27;;;;;;;15.00;68.60;100703.34;4159279;28;20033;-62
2023/08/08 00:34:42;;;;;;;3.17;1.30;;;;;;;15.03;69.32;100701.63;4144611;28;20502;-62
2023/08/08 00:36:45;;;;;;;2.25;1.48;;;;;;;15.03;68.99;100701.63;4127527;28;20170;-62
2023/08/08 00:38:48;;;;;;;3.88;1.67;;;;;;;15.01;69.64;100705.13;4128837;28;20034;-62
2023/08/08 00:40:51;;;;;;;4.32;1.88;;;;;;;14.97;69.77;100699.88;4127830;28;20045;-62
2023/08/08 00:42:54;;;;;;;3.33;1.58;;;;;;;14.97;69.08;100698.13;4129158;28;20496;-62
2023/08/08 00:45:03;;;;;;;4.40;1.67;;;;;;;14.96;68.88;100699.00;4128838;28;20046;-62
2023/08/08 00:47:06;;;;;;;4.28;1.63;;;;;;;14.89;69.96;100688.53;4127964;28;20052;-62
2023/08/08 00:49:10;;;;;;;3.63;1.42;;;;;;;14.88;69.59;100686.78;4128426;28;20101;-63
2023/08/08 00:51:13;;;;;;;3.13;1.70;;;;;;;14.88;68.86;100689.38;4128396;28;20062;-63
2023/08/08 00:53:16;;;;;;;3.40;1.77;;;;;;;14.84;69.08;100684.16;4145846;28;20046;-63
2023/08/08 00:55:19;;;;;;;3.22;1.73;;;;;;;14.81;69.95;100680.69;4144611;28;20120;-62
2023/08/08 00:57:22;;;;;;;2.72;1.85;;;;;;;14.79;69.35;100682.41;4159247;28;20038;-62
2023/08/08 00:59:28;;;;;;;2.60;1.50;;;;;;;14.76;69.88;100687.66;4145933;28;20427;-63
2023/08/08 01:01:32;;;;;;;1.35;1.20;;;;;;;14.73;69.87;100687.66;4161458;28;20080;-62
2023/08/08 01:03:34;;;;;;;2.63;1.50;;;;;;;14.65;70.04;100688.50;4160445;28;20185;-63
2023/08/08 01:05:42;;;;;;;3.10;1.70;;;;;;;14.67;69.47;100693.75;4145755;28;20052;-63
2023/08/08 01:07:53;;;;;;;2.33;1.55;;;;;;;14.63;69.99;100687.66;4145313;28;20057;-63
2023/08/08 01:10:01;;;;;;;2.88;1.73;;;;;;;14.61;70.67;100691.09;4143762;28;20080;-63
2023/08/08 01:12:10;;;;;;;2.50;1.52;;;;;;;14.57;70.66;100681.50;4125493;28;20134;-63
2023/08/08 01:14:13;;;;;;;6.40;1.80;;;;;;;14.50;69.77;100685.84;4125892;28;20484;-63
2023/08/08 01:16:17;;;;;;;1.50;1.20;;;;;;;14.47;70.07;100688.44;4123341;28;20411;-63
2023/08/08 01:18:22;;;;;;;1.85;1.40;;;;;;;14.48;70.40;100683.25;4112133;28;20061;-63
2023/08/08 01:20:25;;;;;;;1.77;1.50;;;;;;;14.45;69.72;100688.44;4145037;28;20055;-63
2023/08/08 01:22:36;;;;;;;4.15;1.67;;;;;;;14.45;70.13;100683.19;4142315;28;20052;-63
2023/08/08 01:24:41;;;;;;;4.43;1.60;;;;;;;14.44;70.68;100681.47;4112032;28;20042;-62
2023/08/08 01:26:44;;;;;;;3.80;1.77;;;;;;;14.44;70.96;100685.81;4156474;28;20129;-63
2023/08/08 01:28:47;;;;;;;3.03;1.33;;;;;;;14.44;70.87;100686.72;4126303;28;20065;-63
2023/08/08 01:30:50;;;;;;;3.85;1.60;;;;;;;14.39;71.01;100680.59;4144939;28;20040;-63
2023/08/08 01:32:53;;;;;;;2.50;1.40;;;;;;;14.38;71.43;100683.19;4160196;28;20187;-62
2023/08/08 01:34:56;;;;;;;5.53;1.55;;;;;;;14.38;71.04;100684.06;4128986;28;20317;-63
2023/08/08 01:37:18;;;;;;;3.20;1.50;;;;;;;14.39;70.78;100674.50;4158777;28;20487;-62
2023/08/08 01:39:26;;;;;;;5.20;1.60;;;;;;;14.36;71.26;100666.66;4159349;28;20041;-63
2023/08/08 01:41:31;;;;;;;2.40;1.63;;;;;;;14.35;71.57;100668.38;4143674;28;20633;-63
2023/08/08 01:43:34;;;;;;;4.10;1.85;;;;;;;14.35;71.14;100670.13;4158946;28;20120;-62
2023/08/08 01:45:38;;;;;;;2.90;1.70;;;;;;;14.29;71.41;100661.41;4110214;28;20049;-63
2023/08/08 01:47:41;;;;;;;3.28;1.52;;;;;;;14.24;71.11;100678.81;4130098;28;20046;-63
2023/08/08 01:49:44;;;;;;;4.72;1.65;;;;;;;14.23;70.73;100684.91;4130354;28;20050;-63
2023/08/08 01:51:48;;;;;;;2.60;1.45;;;;;;;14.23;71.03;100679.66;4114064;28;20082;-63
2023/08/08 01:53:51;;;;;;;2.80;1.67;;;;;;;14.20;71.63;100686.66;4162800;28;20038;-63
2023/08/08 01:55:54;;;;;;;2.88;1.50;;;;;;;14.18;71.28;100684.03;4149296;28;20045;-63
2023/08/08 01:57:58;;;;;;;3.90;1.58;;;;;;;14.17;70.80;100690.13;4112244;28;20141;-62
2023/08/08 02:00:04;;;;;;;1.92;1.60;;;;;;;14.11;71.27;100682.25;4129208;28;20042;-63
2023/08/08 02:02:17;;;;;;;4.43;1.70;;;;;;;14.08;71.50;100682.25;4147438;28;20046;-63
2023/08/08 02:04:21;;;;;;;6.20;1.70;;;;;;;14.08;71.10;100682.25;4130371;28;20428;-63
2023/08/08 02:06:26;;;;;;;6.43;1.50;;;;;;;14.06;71.66;100673.53;4128974;28;20055;-63
2023/08/08 02:08:28;;;;;;;3.22;1.52;;;;;;;14.05;71.31;100680.50;4130913;28;20141;-63
2023/08/08 02:10:31;;;;;;;5.15;2.00;;;;;;;14.04;71.38;100680.50;4144975;28;20524;-63
2023/08/08 02:12:36;;;;;;;4.30;1.80;;;;;;;14.02;72.01;100670.03;4146162;28;20038;-63
2023/08/08 02:14:42;;;;;;;2.97;1.85;;;;;;;14.03;71.06;100673.50;4129498;28;20040;-63
2023/08/08 02:16:45;;;;;;;2.65;1.35;;;;;;;13.98;71.35;100673.50;4145534;28;20500;-63
2023/08/08 02:18:47;;;;;;;2.70;1.60;;;;;;;13.96;71.84;100678.72;4129706;28;20039;-63
2023/08/08 02:20:50;;;;;;;2.72;1.52;;;;;;;13.93;71.65;100676.09;4147721;22;22739;-61
2023/08/08 02:22:53;;;;;;;3.67;1.35;;;;;;;13.96;71.45;100665.66;4144462;28;20076;-61
2023/08/08 02:24:56;;;;;;;2.42;1.52;;;;;;;13.95;71.65;100661.28;4144088;28;20089;-60
2023/08/08 02:26:59;;;;;;;5.13;1.80;;;;;;;13.93;71.65;100665.66;4162240;28;20048;-61
2023/08/08 02:29:02;;;;;;;7.25;1.35;;;;;;;13.91;71.25;100663.88;4144928;28;20046;-61
2023/08/08 02:31:06;;;;;;;2.25;1.40;;;;;;;13.90;71.09;100663.03;4164574;28;20513;-61
2023/08/08 02:33:09;;;;;;;5.70;1.80;;;;;;;13.86;71.89;100663.88;4139836;28;20057;-60
2023/08/08 02:35:13;;;;;;;3.72;1.58;;;;;;;13.87;71.65;100667.34;4179130;28;20419;-60
2023/08/08 02:37:17;;;;;;;3.28;1.80;;;;;;;13.87;71.44;100663.03;4145896;28;20033;-61
2023/08/08 02:39:20;;;;;;;2.72;1.60;;;;;;;13.84;71.15;100660.38;4161051;28;20037;-60
2023/08/08 02:41:23;;;;;;;5.22;2.08;;;;;;;13.83;71.21;100671.72;4158810;28;20033;-60
2023/08/08 02:43:26;;;;;;;2.63;1.50;;;;;;;13.77;71.76;100676.91;4146567;28;20030;-60
2023/08/08 02:45:29;;;;;;;2.28;1.30;;;;;;;13.71;72.05;100669.03;4144017;28;20034;-60
2023/08/08 02:47:33;;;;;;;2.47;1.50;;;;;;;13.72;71.65;100676.88;4146206;28;20041;-60
2023/08/08 02:49:36;;;;;;;2.42;1.80;;;;;;;13.71;72.26;100672.53;4175719;28;20139;-60
2023/08/08 02:51:39;;;;;;;5.60;1.60;;;;;;;13.70;72.55;100678.63;4146606;28;20069;-61
2023/08/08 02:53:42;;;;;;;3.30;1.63;;;;;;;13.70;72.85;100680.38;4146589;28;20030;-60
2023/08/08 02:55:45;;;;;;;2.28;1.60;;;;;;;13.71;72.70;100677.75;4144677;28;20034;-60
2023/08/08 02:57:48;;;;;;;3.65;1.30;;;;;;;13.76;72.55;100672.53;4145354;28;20030;-61
2023/08/08 02:59:51;;;;;;;5.82;1.85;;;;;;;13.76;72.67;100673.41;4146467;28;20237;-61
2023/08/08 03:01:54;;;;;;;1.92;1.40;;;;;;;13.78;72.77;100676.91;4130052;28;20068;-61
2023/08/08 03:03:59;;;;;;;2.63;1.50;;;;;;;13.79;72.33;100677.78;4163192;28;20433;-60
2023/08/08 03:06:01;;;;;;;2.67;1.42;;;;;;;13.79;72.98;100667.34;4161433;28;20556;-60
2023/08/08 03:08:05;;;;;;;2.15;1.30;;;;;;;13.83;72.10;100663.88;4144574;28;20034;-60
2023/08/08 03:10:09;;;;;;;3.20;1.48;;;;;;;13.80;72.42;100661.25;4144075;28;20515;-60
2023/08/08 03:12:13;;;;;;;2.87;1.90;;;;;;;13.79;73.33;100662.09;4162771;28;20049;-61
2023/08/08 03:14:16;;;;;;;4.45;1.42;;;;;;;13.77;73.11;100656.88;4146061;28;20328;-61
2023/08/08 03:16:19;;;;;;;3.65;1.80;;;;;;;13.77;72.56;100651.66;4145687;28;20034;-61
2023/08/08 03:18:23;;;;;;;2.80;1.48;;;;;;;13.76;72.98;100664.72;4127808;28;20042;-61
2023/08/08 03:20:27;;;;;;;3.08;1.50;;;;;;;13.74;73.13;100661.19;4144241;28;20045;-60
2023/08/08 03:22:30;;;;;;;5.32;1.70;;;;;;;13.72;73.21;100663.81;4144832;28;20442;-60
2023/08/08 03:24:33;;;;;;;3.70;1.80;;;;;;;13.72;72.94;100662.94;4143917;28;20068;-61
2023/08/08 03:26:36;;;;;;;3.33;1.55;;;;;;;13.74;73.40;100661.19;4143565;28;20061;-60
2023/08/08 03:28:39;;;;;;;4.78;1.65;;;;;;;13.72;73.45;100653.34;4129497;28;20086;-60
2023/08/08 03:30:42;;;;;;;3.28;1.52;;;;;;;13.71;73.84;100655.97;4163554;28;20132;-61
2023/08/08 03:32:46;;;;;;;1.85;1.48;;;;;;;13.69;73.87;100658.56;4144160;28;20531;-61
2023/08/08 03:34:50;;;;;;;2.65;1.50;;;;;;;13.71;73.42;100655.97;4162712;28;20270;-60
2023/08/08 03:36:54;;;;;;;4.68;1.65;;;;;;;13.72;73.70;100657.72;4128810;28;20046;-60
2023/08/08 03:38:57;;;;;;;3.08;1.73;;;;;;;13.66;73.46;100655.94;4145366;28;20042;-61
2023/08/08 03:41:00;;;;;;;3.72;1.95;;;;;;;13.70;73.05;100662.06;4145181;28;20065;-60
2023/08/08 03:43:03;;;;;;;2.15;1.42;;;;;;;13.65;73.52;100655.94;4143988;28;20065;-61
2023/08/08 03:45:07;;;;;;;2.88;1.67;;;;;;;13.60;73.69;100654.16;4155420;28;20136;-60
2023/08/08 03:47:10;;;;;;;2.67;1.50;;;;;;;13.58;73.18;100655.03;4139611;28;20066;-61
2023/08/08 03:49:22;;;;;;;2.65;1.70;;;;;;;13.58;73.49;100658.53;4145287;28;20373;-61
2023/08/08 03:51:25;;;;;;;3.72;1.60;;;;;;;13.59;73.63;100662.00;4145340;28;20034;-60
2023/08/08 03:53:29;;;;;;;1.35;1.20;;;;;;;13.57;73.33;100659.38;4145629;28;20034;-60
2023/08/08 03:55:33;;;;;;;3.35;1.85;;;;;;;13.59;73.39;100667.22;4156071;28;20124;-60
2023/08/08 03:57:36;;;;;;;;;;;;;;;13.46;73.76;100660.19;4145023;28;20492;-61
2023/08/08 03:59:40;;;;;;;3.97;1.70;;;;;;;13.45;73.79;100661.94;4145514;28;19925;-60
2023/08/08 04:01:42;;;;;;;4.47;2.13;;;;;;;13.49;73.73;100662.81;4145432;28;20038;-61
2023/08/08 04:03:45;;;;;;;1.80;1.38;;;;;;;13.49;73.55;100661.09;4145315;28;20045;-60
2023/08/08 04:05:48;;;;;;;2.90;1.65;;;;;;;13.49;73.76;100665.44;4144106;28;20101;-61
2023/08/08 04:07:51;;;;;;;2.92;1.50;;;;;;;13.47;73.49;100673.25;4143506;28;20041;-60
2023/08/08 04:09:55;;;;;;;5.15;2.08;;;;;;;13.47;74.00;100664.56;4143508;28;20046;-60
2023/08/08 04:11:59;;;;;;;3.15;1.70;;;;;;;13.47;73.75;100659.34;4142992;28;20140;-60
2023/08/08 04:14:03;;;;;;;3.20;1.83;;;;;;;13.48;73.57;100663.69;4145115;28;20514;-61
2023/08/08 04:16:06;;;;;;;3.03;1.73;;;;;;;13.47;73.52;100661.94;4139695;28;20034;-61
2023/08/08 04:18:09;;;;;;;3.00;1.65;;;;;;;13.42;73.61;100661.94;4161454;28;20735;-61
2023/08/08 04:20:12;;;;;;;3.78;1.83;;;;;;;13.46;73.71;100673.25;4162443;28;20042;-61
2023/08/08 04:22:16;;;;;;;1.98;1.55;;;;;;;13.45;73.44;100661.94;4128121;28;20125;-61
2023/08/08 04:24:19;;;;;;;4.22;2.03;;;;;;;13.42;73.90;100665.41;4161985;28;20124;-60
2023/08/08 04:26:23;;;;;;;1.73;1.52;;;;;;;13.47;73.83;100664.56;4157209;28;20144;-60
2023/08/08 04:28:26;;;;;;;3.53;1.90;;;;;;;13.44;73.83;100665.41;4162084;28;20041;-61
2023/08/08 04:30:29;;;;;;;5.32;1.90;;;;;;;13.46;74.18;100660.19;4141591;28;20542;-60
2023/08/08 04:32:30;;;;;;;5.15;1.77;;;;;;;13.48;74.29;100664.56;4160151;28;20034;-61
2023/08/08 04:34:33;;;;;;;5.70;1.80;;;;;;;13.50;74.18;100668.06;4164713;28;20052;-60
2023/08/08 04:36:36;;;;;;;5.50;1.77;;;;;;;13.50;74.00;100670.66;4146932;28;20601;-61
2023/08/08 04:38:39;;;;;;;3.42;1.70;;;;;;;13.51;73.96;100668.94;4159512;28;20136;-61
2023/08/08 04:40:41;;;;;;;3.05;2.13;;;;;;;13.51;74.54;100669.81;4144220;28;20041;-60
2023/08/08 04:42:45;;;;;;;2.85;1.67;;;;;;;13.53;74.21;100664.59;4163749;28;20072;-60
2023/08/08 04:45:13;;;;;;;3.03;1.67;;;;;;;13.54;73.81;100675.03;4175138;28;20098;-60
2023/08/08 04:47:16;;;;;;;3.15;2.15;;;;;;;13.57;73.86;100677.66;4142910;28;20426;-60
2023/08/08 04:49:19;;;;;;;3.53;1.95;;;;;;;13.52;74.05;100683.72;4159666;28;20045;-60
2023/08/08 04:51:22;;;;;;;3.10;2.00;;;;;;;13.55;74.22;100675.91;4161807;28;20509;-60
2023/08/08 04:53:25;;;;;;;2.85;1.88;;;;;;;13.56;74.11;100677.66;4162556;28;20041;-61
2023/08/08 04:55:28;;;;;;;3.00;1.80;;;;;;;13.54;74.85;100682.03;4161704;28;20145;-61
2023/08/08 04:57:31;;;;;;;2.67;1.92;;;;;;;13.54;74.39;100675.03;4160863;28;20041;-60
2023/08/08 04:59:35;;;;;;;4.32;1.90;;;;;;;13.58;74.01;100676.81;4162119;28;20120;-60
2023/08/08 05:01:38;;;;;;;8.48;2.13;;;;;;;13.55;74.55;100682.03;4144379;28;20507;-60
2023/08/08 05:03:41;;;;;;;4.55;2.47;;;;;;;13.55;74.14;100678.53;4158367;28;20125;-60
2023/08/08 05:05:45;;;;;;;7.30;2.13;;;;;;;13.58;74.32;100676.81;4162051;28;20160;-61
2023/08/08 05:07:48;;;;;;;3.77;2.07;;;;;;;13.56;74.73;100678.53;4161423;28;20064;-60
2023/08/08 05:09:51;;;;;;;5.53;2.53;;;;;;;13.63;74.42;100679.44;4162149;28;20643;-60
2023/08/08 05:11:54;;;;;;;3.88;1.80;;;;;;;13.59;74.62;100678.56;4162095;28;20048;-60
2023/08/08 05:13:57;;;;;;;4.05;2.30;;;;;;;13.67;74.57;100675.09;4160364;28;20045;-60
2023/08/08 05:16:01;;;;;;;2.92;2.10;;;;;;;13.68;74.27;100674.25;4161885;28;20095;-60
2023/08/08 05:18:05;;;;;;;3.05;1.80;;;;;;;13.68;74.36;100676.84;4161129;28;20088;-60
2023/08/08 05:20:09;;;;;;;2.83;1.90;;;;;;;13.71;74.62;100666.41;4140513;28;20052;-60
2023/08/08 05:22:12;;;;;;;2.28;1.77;;;;;;;13.74;74.71;100667.31;4160904;28;20775;-60
2023/08/08 05:24:15;;;;;;;4.18;2.10;;;;;;;13.83;74.21;100661.25;4128160;28;20050;-60
2023/08/08 05:26:18;;;;;;;4.70;1.88;;;;;;;13.78;74.38;100668.19;4161600;28;20065;-60
2023/08/08 05:28:21;;;;;;;2.67;1.80;;;;;;;13.79;73.80;100662.09;4141581;28;20069;-60
2023/08/08 05:30:25;;;;;;;3.30;1.90;;;;;;;13.79;74.41;100662.09;4157696;28;20217;-60
2023/08/08 05:32:29;;;;;;;6.83;2.00;;;;;;;13.84;74.89;100665.59;4144393;28;20050;-60
2023/08/08 05:34:32;;;;;;;2.65;1.52;;;;;;;13.89;74.03;100661.28;4161734;28;20453;-61
2023/08/08 05:36:35;;;;;;;4.90;2.20;;;;;;;13.96;73.94;100668.28;4161741;28;20044;-60
2023/08/08 05:38:38;;;;;;;5.80;2.15;;;;;;;14.04;73.84;100664.81;4162350;28;20033;-60
2023/08/08 05:40:41;;;;;;;2.88;1.60;;;;;;;14.08;74.01;100661.34;4160851;28;20037;-60
2023/08/08 05:42:43;;;;;;;5.60;1.80;;;;;;;14.10;73.32;100659.59;4159819;28;20061;-60
2023/08/08 05:44:46;;;;;;;2.55;1.33;;;;;;;14.11;73.98;100667.44;4160355;28;20037;-60
2023/08/08 05:46:49;;;;;;;4.72;1.95;;;;;;;14.16;73.54;100664.84;4143368;28;20085;-60
2023/08/08 05:48:54;;;;;;;4.03;1.65;;;;;;;14.23;73.49;100661.38;4143935;28;20037;-60
2023/08/08 05:50:58;;;;;;;9.98;2.22;;;;;;;14.26;73.41;100664.00;4161619;28;20037;-60
2023/08/08 05:53:01;;;;;;;;;;;;;;;14.25;73.16;100669.22;4159126;28;20037;-61
2023/08/08 05:55:04;;;;;;;4.75;1.90;;;;;;;14.34;73.17;100668.38;4144427;28;19925;-60
2023/08/08 05:57:08;;;;;;;4.13;1.85;;;;;;;14.42;73.12;100670.13;4160905;28;20045;-60
2023/08/08 05:59:10;;;;;;;6.20;2.15;;;;;;;14.49;73.08;100668.41;4161514;28;20120;-60
2023/08/08 06:01:13;;;;;;;2.30;1.58;;;;;;;14.57;72.56;100676.25;4159724;28;20040;-61
2023/08/08 06:03:16;;;;;;;5.25;2.20;;;;;;;14.62;72.35;100670.19;4161479;28;20033;-60
2023/08/08 06:05:22;;;;;;;2.95;1.50;;;;;;;14.72;72.10;100670.19;4143796;28;20142;-61
2023/08/08 06:07:25;;;;;;;3.63;1.60;;;;;;;14.75;71.65;100672.84;4142824;28;20038;-60
2023/08/08 06:09:28;;;;;;;3.45;1.55;;;;;;;14.83;72.00;100671.97;4144236;28;20045;-60
2023/08/08 06:11:32;;;;;;;6.20;1.98;;;;;;;14.94;71.17;100668.47;4143610;28;20054;-60
2023/08/08 06:13:34;;;;;;;4.60;1.40;;;;;;;15.01;71.42;100668.47;4161261;28;20029;-60
2023/08/08 06:15:37;;;;;;;6.28;1.85;;;;;;;15.10;70.92;100674.53;4144066;28;20069;-60
2023/08/08 06:17:40;;;;;;;3.53;1.45;;;;;;;15.20;70.81;100673.69;4160763;28;20052;-60
2023/08/08 06:19:43;;;;;;;5.22;1.60;;;;;;;15.25;69.96;100677.16;4143990;28;20094;-60
2023/08/08 06:21:48;;;;;;;4.22;1.58;;;;;;;15.31;70.09;100676.28;4138510;28;20042;-60
2023/08/08 06:23:54;;;;;;;4.07;1.70;;;;;;;15.35;70.18;100672.78;4160858;28;20038;-60
2023/08/08 06:25:57;;;;;;;5.45;1.73;;;;;;;15.41;69.27;100664.91;4158993;28;20052;-61
2023/08/08 06:28:00;;;;;;;5.80;1.67;;;;;;;15.50;69.75;100666.63;4160475;28;20042;-60
2023/08/08 06:30:04;;;;;;;4.85;1.58;;;;;;;15.59;68.64;100661.34;4161281;28;20091;-60
2023/08/08 06:32:08;;;;;;;2.47;1.50;;;;;;;15.65;68.20;100665.69;4148102;28;20041;-60
2023/08/08 06:34:11;;;;;;;3.70;1.63;;;;;;;15.74;67.93;100664.78;4164736;28;20491;-60
2023/08/08 06:36:14;;;;;;;3.08;1.45;;;;;;;15.81;68.29;100669.16;4149599;28;20699;-60
2023/08/08 06:38:18;;;;;;;3.83;1.50;;;;;;;15.91;67.91;100672.63;4148513;28;20129;-61
2023/08/08 06:40:21;;;;;;;5.18;1.50;;;;;;;15.98;67.65;100669.97;4145989;28;20410;-61
2023/08/08 06:42:24;;;;;;;3.03;1.55;;;;;;;16.10;66.84;100668.16;4163382;28;20529;-61
2023/08/08 06:44:33;;;;;;;4.00;1.48;;;;;;;16.14;66.70;100669.91;4147304;28;20041;-61
2023/08/08 06:46:36;;;;;;;7.20;1.63;;;;;;;16.24;66.79;100666.34;4163555;28;20083;-60
2023/08/08 06:48:39;;;;;;;3.97;1.60;;;;;;;16.29;66.29;100667.19;4145886;28;20042;-61
2023/08/08 06:50:42;;;;;;;5.50;2.60;;;;;;;16.38;65.74;100668.88;4164635;28;20402;-60
2023/08/08 06:52:45;;;;;;;5.68;1.83;;;;;;;16.42;66.33;100661.88;4174308;28;20037;-60
2023/08/08 06:54:49;;;;;;;3.78;2.00;;;;;;;16.47;65.87;100657.44;4164046;28;20099;-60
2023/08/08 06:56:52;;;;;;;4.65;1.50;;;;;;;16.57;65.43;100659.13;4144944;28;20040;-60
2023/08/08 06:58:54;;;;;;;4.40;1.73;;;;;;;16.65;65.69;100654.69;4163697;28;20087;-61
2023/08/08 07:00:57;;;;;;;3.63;1.77;;;;;;;16.73;63.60;100660.75;4163558;28;20077;-60
2023/08/08 07:03:00;;;;;;;9.02;1.63;;;;;;;16.75;63.28;100658.97;4160770;28;20037;-61
2023/08/08 07:05:04;;;;;;;3.17;1.55;;;;;;;16.80;62.88;100658.09;4161677;28;20041;-61
2023/08/08 07:07:07;;;;;;;6.35;1.60;;;;;;;16.90;62.75;100652.75;4162924;28;20132;-61
2023/08/08 07:09:11;;;;;;;4.97;1.75;;;;;;;16.92;62.18;100658.00;4147008;28;20166;-61
2023/08/08 07:11:15;;;;;;;5.20;1.70;;;;;;;17.03;61.48;100653.53;4163725;28;20049;-61
2023/08/08 07:13:18;;;;;;;7.43;1.60;;;;;;;17.04;60.75;100649.13;4145764;28;20129;-62
2023/08/08 07:15:21;;;;;;;4.63;1.70;;;;;;;17.14;60.63;100657.81;4163401;28;20508;-61
2023/08/08 07:17:24;;;;;;;5.28;1.55;;;;;;;17.21;60.83;100651.59;4158963;28;20038;-61
2023/08/08 07:19:27;;;;;;;2.70;1.38;;;;;;;17.25;59.92;100648.91;4158442;28;20107;-61
2023/08/08 07:21:31;;;;;;;5.15;1.75;;;;;;;17.26;59.64;100660.31;4145922;28;20121;-62
2023/08/08 07:23:33;;;;;;;6.25;1.38;;;;;;;17.35;58.49;100657.59;4145460;28;20036;-61
2023/08/08 07:25:36;;;;;;;4.00;1.83;;;;;;;17.43;58.76;100645.25;4145989;28;20040;-61
2023/08/08 07:27:41;;;;;;;6.50;2.15;;;;;;;17.53;58.35;100658.28;4165788;28;20486;-61
2023/08/08 07:29:44;;;;;;;2.97;1.33;;;;;;;17.56;57.40;100652.97;4161156;28;20033;-61
2023/08/08 07:31:47;;;;;;;4.90;1.60;;;;;;;17.60;57.10;100654.69;4159036;28;20034;-62
2023/08/08 07:33:48;;;;;;;2.88;1.10;;;;;;;17.62;56.91;100655.53;4162167;28;20033;-62
2023/08/08 07:35:51;;;;;;;5.03;1.80;;;;;;;17.66;56.92;100659.00;4161446;28;20060;-62
2023/08/08 07:37:54;;;;;;;4.78;1.70;;;;;;;17.73;57.14;100655.41;4162981;28;20087;-62
2023/08/08 07:39:57;;;;;;;5.05;1.40;;;;;;;17.82;56.61;100655.28;4160304;28;20064;-62
2023/08/08 07:42:00;;;;;;;5.72;1.40;;;;;;;17.84;56.22;100652.66;4162269;28;20045;-62
2023/08/08 07:44:06;;;;;;;4.63;1.40;;;;;;;17.91;55.08;100654.34;4161896;28;20034;-62
2023/08/08 07:46:09;;;;;;;3.75;1.50;;;;;;;18.02;55.08;100647.19;4142415;28;20137;-62
2023/08/08 07:48:12;;;;;;;3.53;1.63;;;;;;;18.11;55.08;100647.03;4144965;28;20048;-62
2023/08/08 07:50:15;;;;;;;6.38;1.30;;;;;;;18.02;54.45;100651.56;4161466;28;20041;-61
2023/08/08 07:52:18;;;;;;;3.28;1.60;;;;;;;18.03;54.22;100646.28;4144578;28;20073;-60
2023/08/08 07:54:21;;;;;;;4.15;1.40;;;;;;;18.07;54.68;100647.97;4143073;28;20034;-60
2023/08/08 07:56:23;;;;;;;4.53;1.40;;;;;;;18.13;54.38;100640.00;4161241;28;20044;-60
2023/08/08 07:58:27;;;;;;;6.10;1.45;;;;;;;18.23;53.70;100645.13;4162448;28;20037;-59
2023/08/08 08:00:31;;;;;;;3.17;1.40;;;;;;;18.28;53.53;100643.28;4163380;28;20038;-59
2023/08/08 08:02:34;;;;;;;5.90;1.50;;;;;;;18.22;54.04;100643.38;4145077;28;20034;-60
2023/08/08 08:04:47;;;;;;;8.48;1.30;;;;;;;18.21;53.97;100647.78;4173126;28;20033;-60
2023/08/08 08:06:50;;;;;;;3.72;1.52;;;;;;;18.23;53.82;100643.38;4162453;28;20120;-59
2023/08/08 08:08:53;;;;;;;5.25;1.55;;;;;;;18.22;53.59;100646.88;4163039;28;20050;-60
2023/08/08 08:10:55;;;;;;;2.97;1.30;;;;;;;18.26;53.38;100645.94;4162284;28;20040;-59
2023/08/08 08:12:58;;;;;;;7.10;1.55;;;;;;;18.31;54.01;100640.63;4160226;28;20048;-60
2023/08/08 08:15:02;;;;;;;5.30;1.38;;;;;;;18.35;54.78;100641.44;4162119;28;20124;-63
2023/08/08 08:17:06;;;;;;;8.15;1.38;;;;;;;18.47;54.24;100652.69;4161363;28;20049;-63
2023/08/08 08:19:09;;;;;;;10.52;2.08;;;;;;;18.46;54.27;100643.03;4162129;28;20037;-60
2023/08/08 08:21:14;;;;;;;7.60;1.73;;;;;;;18.56;53.73;100640.25;4161477;23;20079;-65
2023/08/08 08:23:17;;;;;;;5.85;1.42;;;;;;;18.74;53.29;100636.47;4163861;28;20067;-65
2023/08/08 08:25:20;;;;;;;2.75;1.73;;;;;;;18.71;53.93;100637.38;4165783;28;20138;-65
2023/08/08 08:27:23;;;;;;;3.55;1.45;;;;;;;18.67;53.94;100635.69;4157181;28;20087;-65
2023/08/08 08:29:25;;;;;;;7.03;1.95;;;;;;;18.72;52.99;100631.22;4164883;28;20052;-65
2023/08/08 08:31:29;;;;;;;4.80;1.60;;;;;;;18.63;53.42;100634.88;4164286;28;20032;-67
2023/08/08 08:33:33;;;;;;;2.47;1.20;;;;;;;18.70;53.54;100642.66;4145740;28;20096;-64
2023/08/08 08:35:36;;;;;;;4.05;1.38;;;;;;;18.76;54.03;100639.91;4160255;28;20395;-66
2023/08/08 08:37:39;;;;;;;5.65;1.55;;;;;;;18.82;54.02;100635.44;4142095;28;20052;-67
2023/08/08 08:39:42;;;;;;;8.57;1.50;;;;;;;18.90;53.79;100631.84;4163175;28;20071;-67
2023/08/08 08:41:49;;;;;;;3.35;1.30;;;;;;;18.89;52.69;100632.72;4159059;28;20042;-70
2023/08/08 08:43:52;;;;;;;3.38;1.27;;;;;;;18.87;52.72;100634.53;4161761;28;20041;-75
2023/08/08 08:45:56;;;;;;;3.95;1.05;;;;;;;19.02;52.51;100626.31;4164615;28;20049;-77
2023/08/08 08:48:00;;;;;;;3.73;1.60;;;;;;;19.17;51.69;100630.44;4164024;28;20038;-78
2023/08/08 08:50:05;;;;;;;3.90;1.58;;;;;;;19.29;52.00;100624.94;4164553;28;20636;-67
2023/08/08 08:52:08;;;;;;;3.28;1.40;;;;;;;19.36;51.26;100623.94;4146869;28;20058;-66
2023/08/08 08:54:14;;;;;;;4.72;1.60;;;;;;;19.38;51.34;100617.75;4164550;28;20037;-67
2023/08/08 08:56:20;;;;;;;3.30;1.10;;;;;;;19.42;50.23;100620.31;4165695;28;20132;-65
2023/08/08 08:58:25;;;;;;;4.35;1.10;;;;;;;19.46;48.97;100615.84;4167997;28;20061;-66
2023/08/08 09:00:28;;;;;;;4.03;1.33;;;;;;;19.48;48.09;100614.91;4163726;28;20129;-66
2023/08/08 09:02:30;;;;;;;2.22;0.95;;;;;;;19.54;47.98;100612.16;4164388;28;20045;-66
2023/08/08 09:04:35;;;;;;;3.22;1.20;;;;;;;19.59;46.63;100613.81;4164151;28;20060;-66
2023/08/08 09:06:39;;;;;;;;;;;;;;;19.64;46.61;100614.56;4136839;28;20435;-66
2023/08/08 09:08:42;;;;;;;4.70;1.30;;;;;;;19.76;45.74;100609.06;4117777;28;20334;-66
2023/08/08 09:10:44;;;;;;;5.88;1.42;;;;;;;19.83;45.94;100609.81;4147662;28;20482;-67
2023/08/08 09:12:48;;;;;;;2.03;0.90;;;;;;;19.91;45.38;100609.66;4149084;28;20431;-66
2023/08/08 09:14:56;;;;;;;2.30;1.05;;;;;;;19.95;45.66;100604.28;4160821;28;20505;-66
2023/08/08 09:16:58;;;;;;;4.40;1.05;;;;;;;20.04;45.57;100608.47;4156162;28;20033;-66
2023/08/08 09:19:03;;;;;;;3.22;1.05;;;;;;;20.18;45.35;100606.41;4159151;28;20435;-65
2023/08/08 09:21:06;;;;;;;5.72;1.17;;;;;;;20.25;44.86;100615.03;4147663;28;20044;-66
2023/08/08 09:23:11;;;;;;;4.70;1.30;;;;;;;20.28;44.87;100611.44;4161314;28;20068;-66
2023/08/08 09:25:14;;;;;;;5.03;1.10;;;;;;;20.29;45.22;100613.19;4137585;28;20133;-66
2023/08/08 09:27:17;;;;;;;4.18;1.35;;;;;;;20.29;44.07;100603.50;4148183;28;20069;-65
2023/08/08 09:29:20;;;;;;;3.90;1.38;;;;;;;20.36;44.25;100610.38;4163056;28;20132;-66
2023/08/08 09:31:25;;;;;;;3.42;1.23;;;;;;;20.45;43.97;100604.00;4148150;28;20132;-66
2023/08/08 09:33:30;;;;;;;3.15;1.00;;;;;;;20.40;43.95;100605.91;4150018;28;20471;-66
2023/08/08 09:35:32;;;;;;;2.58;1.38;;;;;;;20.46;42.96;100604.84;4146481;28;20136;-69
2023/08/08 09:37:36;;;;;;;4.38;1.40;;;;;;;20.52;43.12;100599.44;4163337;28;20111;-73